Saint Petersburg, FL

2:09 PM EDT on May 27, 2015 (GMT -0400)
MacDill Air Force Base | | Change Station
CLOSE
Current Station
Airport
Location: Tampa Macdill AFB,
Elevation: 13 ft
Nearby Weather Stations

Elev 13 ft 27.85 °N, 82.52 °W | Updated 11 minutes ago

Clear
Clear
88 °F
Feels Like 92 °F
N
8
Wind Variable Wind from ENE

Today
High -- | Low -- °F
--% Chance of Precip.
Yesterday
High -- | Low -- °F
Precip. -- in
6:36 AM 8:19 PM
Waxing Gibbous, 69% visible
Pressure 30.15 in
Visibility 10.0 miles
Clouds Few 9000 ft
Scattered Clouds 13000 ft
Scattered Clouds 16000 ft
Mostly Cloudy 19000 ft
Mostly Cloudy 21000 ft
Heat Index 92 °F
Dew Point 69 °F
Humidity 52%
Rainfall 0.00 in
Snow Depth Not available.
UV 8 out of 12
Pollen 5.20 out of 12
Air Quality Not available.
Flu Activity Sporadic
METAR KMCF 271758Z AUTO 07007KT 10SM FEW090 SCT130 SCT160 BKN190 BKN210 31/20 A3014 RMK AO2 SLP209 T03120204 10313 20244 57013

More Conditions Fewer Conditions

Pressure 30.15 in
Visibility 10.0 miles
Clouds Few 9000 ft
Scattered Clouds 13000 ft
Scattered Clouds 16000 ft
Mostly Cloudy 19000 ft
Mostly Cloudy 21000 ft
Heat Index 92 °F
Dew Point 69 °F
Humidity 52%
Rainfall 0.00 in
Snow Depth Not available.
UV 8 out of 12
Pollen 5.20 out of 12
Air Quality Not available.
Flu Activity Sporadic
METAR KMCF 271758Z AUTO 07007KT 10SM FEW090 SCT130 SCT160 BKN190 BKN210 31/20 A3014 RMK AO2 SLP209 T03120204 10313 20244 57013

More Conditions Fewer Conditions

10-Day Weather Forecast

Almanac

Astronomy

May. 27, 2015 Rise Set
Actual Time
Civil Twilight
Nautical Twilight
Astronomical Twilight
Moon
Length of Visible Light
Length of Day
Tomorrow will be .
, % of the Moon is Illuminated

Today's Extremes

State Highs State Lows

Community

WunderPhotos

Upload Photos

1,824,736 photos uploaded!

WunderBlogs® & News

Nearby

Air Quality

  Air Quality AQ Index Pollutant
Not available.

Snow Depth

Station Depth Elevation

Earthquake Activity

City Distance Mag. Time & Date
Minimum magnitude displayed is 2.5.

Coastal Water Temperatures

Place Temperature

Stations

Nearby Weather Stations

Station Location Temp. Windchill Dew Point Humidity Wind Precip. Elev Updated Type